sensor_id;sensor_type;location;lat;lon;timestamp;pressure;altitude;pressure_sealevel;temperature
67501;BMP180;54349;52.528;19.760;2023-08-31T01:13:30;99611.00;;;19.60
67501;BMP180;54349;52.528;19.760;2023-08-31T01:16:03;99610.20;;;20.14
67501;BMP180;54349;52.528;19.760;2023-08-31T01:18:33;99613.80;;;20.52
67501;BMP180;54349;52.528;19.760;2023-08-31T01:21:33;99616.60;;;20.38
67501;BMP180;54349;52.528;19.760;2023-08-31T01:24:05;99615.80;;;19.70
67501;BMP180;54349;52.528;19.760;2023-08-31T01:26:33;99616.40;;;19.30
67501;BMP180;54349;52.528;19.760;2023-08-31T01:29:35;99617.20;;;18.98
67501;BMP180;54349;52.528;19.760;2023-08-31T01:32:07;99625.80;;;18.60
67501;BMP180;54349;52.528;19.760;2023-08-31T02:43:11;99662.60;;;19.88
67501;BMP180;54349;52.528;19.760;2023-08-31T02:49:14;99671.60;;;20.66
67501;BMP180;54349;52.528;19.760;2023-08-31T02:51:50;99671.40;;;20.72
67501;BMP180;54349;52.528;19.760;2023-08-31T02:54:51;99670.20;;;20.04
67501;BMP180;54349;52.528;19.760;2023-08-31T03:30:09;99680.40;;;20.32
67501;BMP180;54349;52.528;19.760;2023-08-31T03:32:37;99684.00;;;19.64
67501;BMP180;54349;52.528;19.760;2023-08-31T03:35:39;99681.20;;;19.52
67501;BMP180;54349;52.528;19.760;2023-08-31T03:38:08;99681.80;;;20.00
67501;BMP180;54349;52.528;19.760;2023-08-31T03:40:36;99687.00;;;20.30
67501;BMP180;54349;52.528;19.760;2023-08-31T03:46:37;99696.80;;;20.80
67501;BMP180;54349;52.528;19.760;2023-08-31T08:37:13;99829.80;;;18.52
67501;BMP180;54349;52.528;19.760;2023-08-31T08:39:41;99834.60;;;19.16
67501;BMP180;54349;52.528;19.760;2023-08-31T08:42:31;99839.20;;;19.76
67501;BMP180;54349;52.528;19.760;2023-08-31T08:45:05;99845.80;;;20.24
67501;BMP180;54349;52.528;19.760;2023-08-31T08:47:34;99847.40;;;20.60
67501;BMP180;54349;52.528;19.760;2023-08-31T08:50:04;99853.60;;;20.42
67501;BMP180;54349;52.528;19.760;2023-08-31T08:52:40;99858.20;;;20.08
67501;BMP180;54349;52.528;19.760;2023-08-31T08:55:09;99860.00;;;19.80
67501;BMP180;54349;52.528;19.760;2023-08-31T13:00:47;99876.60;;;20.00
67501;BMP180;54349;52.528;19.760;2023-08-31T13:03:17;99880.60;;;19.56
67501;BMP180;54349;52.528;19.760;2023-08-31T13:06:00;99879.40;;;19.40
67501;BMP180;54349;52.528;19.760;2023-08-31T13:08:29;99880.20;;;19.78
67501;BMP180;54349;52.528;19.760;2023-08-31T13:10:57;99887.80;;;20.20
67501;BMP180;54349;52.528;19.760;2023-08-31T13:13:31;99890.20;;;20.52
67501;BMP180;54349;52.528;19.760;2023-08-31T13:16:13;99895.20;;;20.90
67501;BMP180;54349;52.528;19.760;2023-08-31T13:43:31;99913.80;;;20.38
67501;BMP180;54349;52.528;19.760;2023-08-31T13:46:07;99913.40;;;19.88
67501;BMP180;54349;52.528;19.760;2023-08-31T13:48:35;99916.80;;;19.50
67501;BMP180;54349;52.528;19.760;2023-08-31T13:51:03;99916.60;;;19.50
67501;BMP180;54349;52.528;19.760;2023-08-31T13:53:31;99925.40;;;19.90
67501;BMP180;54349;52.528;19.760;2023-08-31T13:56:00;99924.00;;;20.30
67501;BMP180;54349;52.528;19.760;2023-08-31T13:58:29;99931.80;;;20.60
67501;BMP180;54349;52.528;19.760;2023-08-31T14:00:57;99931.20;;;20.82
67501;BMP180;54349;52.528;19.760;2023-08-31T14:03:31;99935.20;;;20.48
67501;BMP180;54349;52.528;19.760;2023-08-31T14:06:13;99938.60;;;19.94
67501;BMP180;54349;52.528;19.760;2023-08-31T14:08:49;99947.00;;;19.60
67501;BMP180;54349;52.528;19.760;2023-08-31T14:11:20;99946.00;;;19.80
67501;BMP180;54349;52.528;19.760;2023-08-31T16:58:36;100085.80;;;20.04
67501;BMP180;54349;52.528;19.760;2023-08-31T17:01:05;100093.20;;;20.38
67501;BMP180;54349;52.528;19.760;2023-08-31T17:03:33;100094.20;;;20.60
67501;BMP180;54349;52.528;19.760;2023-08-31T17:06:34;100103.40;;;20.82
67501;BMP180;54349;52.528;19.760;2023-08-31T17:09:02;100110.00;;;20.50
67501;BMP180;54349;52.528;19.760;2023-08-31T17:11:35;100106.80;;;19.92
67501;BMP180;54349;52.528;19.760;2023-08-31T17:14:25;100107.20;;;19.80
67501;BMP180;54349;52.528;19.760;2023-08-31T17:16:53;100113.00;;;20.18
67501;BMP180;54349;52.528;19.760;2023-08-31T17:19:24;100117.00;;;20.46
67501;BMP180;54349;52.528;19.760;2023-08-31T17:22:16;100121.00;;;20.70
67501;BMP180;54349;52.528;19.760;2023-08-31T17:37:14;100142.40;;;20.86
67501;BMP180;54349;52.528;19.760;2023-08-31T17:40:15;100138.00;;;20.86
67501;BMP180;54349;52.528;19.760;2023-08-31T17:42:55;100133.80;;;20.12
67501;BMP180;54349;52.528;19.760;2023-08-31T17:45:24;100135.80;;;19.82
67501;BMP180;54349;52.528;19.760;2023-08-31T17:48:25;100140.40;;;20.20
67501;BMP180;54349;52.528;19.760;2023-08-31T17:50:54;100140.20;;;20.50
67501;BMP180;54349;52.528;19.760;2023-08-31T17:53:24;100145.00;;;20.74
67501;BMP180;54349;52.528;19.760;2023-08-31T18:43:08;100187.40;;;20.86
67501;BMP180;54349;52.528;19.760;2023-08-31T18:48:59;100191.20;;;19.80
67501;BMP180;54349;52.528;19.760;2023-08-31T18:51:31;100192.80;;;20.10
67501;BMP180;54349;52.528;19.760;2023-08-31T18:54:11;100192.00;;;20.40
67501;BMP180;54349;52.528;19.760;2023-08-31T18:56:40;100192.20;;;20.60
67501;BMP180;54349;52.528;19.760;2023-08-31T18:59:09;100194.60;;;20.80
67501;BMP180;54349;52.528;19.760;2023-08-31T19:44:22;100209.60;;;19.90
67501;BMP180;54349;52.528;19.760;2023-08-31T19:46:50;100210.60;;;20.34
67501;BMP180;54349;52.528;19.760;2023-08-31T19:49:22;100216.40;;;20.64
67501;BMP180;54349;52.528;19.760;2023-08-31T19:51:59;100214.20;;;20.90
67501;BMP180;54349;52.528;19.760;2023-08-31T19:54:35;100204.00;;;20.34
67501;BMP180;54349;52.528;19.760;2023-08-31T19:57:04;100198.20;;;19.78
67501;BMP180;54349;52.528;19.760;2023-08-31T20:00:05;100200.80;;;19.36
67501;BMP180;54349;52.528;19.760;2023-08-31T20:02:58;100203.40;;;19.04
67501;BMP180;54349;52.528;19.760;2023-08-31T21:59:07;100262.00;;;18.84
67501;BMP180;54349;52.528;19.760;2023-08-31T22:02:15;100257.40;;;18.60
67501;BMP180;54349;52.528;19.760;2023-08-31T22:04:43;100265.20;;;18.92
67501;BMP180;54349;52.528;19.760;2023-08-31T22:07:11;100266.80;;;19.48
67501;BMP180;54349;52.528;19.760;2023-08-31T22:09:44;100274.20;;;19.98
67501;BMP180;54349;52.528;19.760;2023-08-31T22:12:22;100276.20;;;20.40
67501;BMP180;54349;52.528;19.760;2023-08-31T22:14:52;100279.20;;;20.42
67501;BMP180;54349;52.528;19.760;2023-08-31T23:56:41;100279.80;;;18.60
67501;BMP180;54349;52.528;19.760;2023-08-31T23:59:09;100270.00;;;19.18
